Time;durP1;ratioP1;P1;durP2;ratioP2;P2;SDS_P1;SDS_P2;PMS_P1;PMS_P2;Temp;Humidity;BMP_temperature;BMP_pressure;BME280_temperature;BME280_humidity;BME280_pressure;Samples;Min_cycle;Max_cycle;Signal;HPM_P1;HPM_P2
2022/01/09 00:00:21;;;;;;;29.33;5.25;;;6.20;99.90;;;;;;5032010;28;20270;-60
2022/01/09 00:02:47;;;;;;;27.83;5.22;;;6.20;99.90;;;;;;5031139;28;20033;-60
2022/01/09 00:05:14;;;;;;;24.42;4.93;;;6.20;99.90;;;;;;5030609;28;20025;-60
2022/01/09 00:07:40;;;;;;;28.27;5.07;;;6.20;99.90;;;;;;5029882;28;20021;-60
2022/01/09 00:10:07;;;;;;;40.00;5.70;;;6.30;99.90;;;;;;5030703;28;20037;-60
2022/01/09 00:12:33;;;;;;;31.35;5.47;;;6.30;99.90;;;;;;5031235;28;20536;-60
2022/01/09 00:14:59;;;;;;;33.65;5.43;;;6.30;99.90;;;;;;5031193;28;20022;-59
2022/01/09 00:17:25;;;;;;;32.03;5.43;;;6.30;99.90;;;;;;5031753;28;20508;-59
2022/01/09 00:19:50;;;;;;;30.33;4.53;;;6.30;99.90;;;;;;5035103;28;20026;-59
2022/01/09 00:22:19;;;;;;;33.13;5.22;;;6.40;99.90;;;;;;5050294;28;20606;-59
2022/01/09 00:24:45;;;;;;;32.70;5.82;;;6.40;99.90;;;;;;5050725;28;20033;-60
2022/01/09 00:27:10;;;;;;;32.25;5.25;;;6.40;99.90;;;;;;5034488;28;20387;-61
2022/01/09 00:29:36;;;;;;;35.22;6.45;;;6.50;99.90;;;;;;5033225;28;20051;-59
2022/01/09 00:32:02;;;;;;;25.63;4.97;;;6.50;99.90;;;;;;5034008;28;20431;-59
2022/01/09 00:34:27;;;;;;;30.98;5.28;;;6.50;99.90;;;;;;5034631;28;20026;-59
2022/01/09 00:36:53;;;;;;;30.38;5.78;;;6.50;99.90;;;;;;5033768;28;20521;-60
2022/01/09 00:39:19;;;;;;;28.13;5.30;;;6.50;99.90;;;;;;5033990;28;20406;-61
2022/01/09 00:41:44;;;;;;;33.78;5.45;;;6.50;99.90;;;;;;5034468;28;20033;-61
2022/01/09 00:44:10;;;;;;;29.35;5.18;;;6.50;99.90;;;;;;5034975;28;20052;-61
2022/01/09 00:46:35;;;;;;;34.15;5.85;;;6.60;99.90;;;;;;5034658;28;20108;-61
2022/01/09 00:49:03;;;;;;;32.08;4.63;;;6.60;99.90;;;;;;5034150;28;20040;-61
2022/01/09 00:51:28;;;;;;;35.53;4.88;;;6.60;99.90;;;;;;5034442;28;20910;-61
2022/01/09 00:53:54;;;;;;;39.30;5.32;;;6.60;99.90;;;;;;5034466;28;20073;-62
2022/01/09 00:56:20;;;;;;;30.50;5.38;;;6.60;99.90;;;;;;5034256;28;20025;-62
2022/01/09 00:58:45;;;;;;;24.48;4.68;;;6.50;99.90;;;;;;5034170;28;20029;-61
2022/01/09 01:01:11;;;;;;;28.48;4.68;;;6.60;99.90;;;;;;5034548;28;20475;-62
2022/01/09 01:03:36;;;;;;;30.30;5.05;;;6.50;99.90;;;;;;5034627;28;20029;-60
2022/01/09 01:06:02;;;;;;;24.95;5.00;;;6.50;99.90;;;;;;5034232;28;20033;-61
2022/01/09 01:08:28;;;;;;;27.75;4.63;;;6.40;99.90;;;;;;5034489;28;20045;-61
2022/01/09 01:10:53;;;;;;;32.33;5.18;;;6.40;99.90;;;;;;5034042;28;20026;-61
2022/01/09 01:13:19;;;;;;;27.23;5.10;;;6.40;99.90;;;;;;5034178;28;20104;-61
2022/01/09 01:15:45;;;;;;;23.40;4.78;;;6.40;99.90;;;;;;5033396;28;20030;-61
2022/01/09 01:18:10;;;;;;;24.42;4.72;;;6.40;99.90;;;;;;5033889;28;20382;-61
2022/01/09 01:20:36;;;;;;;35.47;5.15;;;6.50;99.90;;;;;;5033463;28;20035;-60
2022/01/09 01:23:03;;;;;;;23.75;4.75;;;6.50;99.90;;;;;;5049317;28;20069;-60
2022/01/09 01:25:28;;;;;;;26.77;5.32;;;6.50;99.90;;;;;;5033863;28;20033;-60
2022/01/09 01:27:54;;;;;;;24.35;4.05;;;6.50;99.90;;;;;;5033867;28;20042;-60
2022/01/09 01:30:20;;;;;;;27.75;5.05;;;6.50;99.90;;;;;;5032388;28;20034;-60
2022/01/09 01:32:46;;;;;;;24.50;4.68;;;6.50;99.90;;;;;;5033519;28;20040;-59
2022/01/09 01:35:12;;;;;;;37.03;4.95;;;6.50;99.90;;;;;;5033461;28;20438;-59
2022/01/09 01:37:41;;;;;;;30.23;4.60;;;6.50;99.90;;;;;;5048760;28;20025;-59
2022/01/09 01:40:09;;;;;;;31.98;4.68;;;6.50;99.90;;;;;;5033528;28;20033;-60
2022/01/09 01:42:35;;;;;;;19.88;3.88;;;6.50;99.90;;;;;;5033210;28;20028;-59
2022/01/09 01:45:02;;;;;;;22.08;3.78;;;6.40;99.90;;;;;;5033629;28;20033;-59
2022/01/09 01:47:27;;;;;;;26.30;4.47;;;6.40;99.90;;;;;;5033152;28;20018;-59
2022/01/09 01:49:53;;;;;;;28.02;4.47;;;6.30;99.90;;;;;;5033339;28;20442;-59
2022/01/09 01:52:25;;;;;;;30.42;4.43;;;6.30;99.90;;;;;;5033001;28;20036;-59
2022/01/09 01:54:50;;;;;;;21.13;3.22;;;6.30;99.90;;;;;;5033223;28;20502;-59
2022/01/09 01:57:17;;;;;;;24.23;4.25;;;6.20;99.90;;;;;;5033362;28;20033;-59
2022/01/09 01:59:42;;;;;;;25.42;3.83;;;6.30;99.90;;;;;;5031936;28;20051;-60
2022/01/09 02:02:08;;;;;;;23.17;4.07;;;6.20;99.90;;;;;;5033200;28;20030;-60
2022/01/09 02:04:33;;;;;;;21.48;4.18;;;6.20;99.90;;;;;;5048918;28;20005;-60
2022/01/09 02:07:02;;;;;;;18.85;3.38;;;6.20;99.90;;;;;;5032979;28;20029;-61
2022/01/09 02:09:28;;;;;;;23.90;3.78;;;6.20;99.90;;;;;;5031640;28;20022;-59
2022/01/09 02:11:54;;;;;;;19.42;3.17;;;6.20;99.90;;;;;;5032620;28;20478;-60
2022/01/09 02:14:19;;;;;;;23.10;3.88;;;6.20;99.90;;;;;;5033028;28;20028;-60
2022/01/09 02:16:48;;;;;;;24.08;4.07;;;6.20;99.90;;;;;;5033342;28;20025;-59
2022/01/09 02:19:14;;;;;;;20.15;3.30;;;6.20;99.90;;;;;;5033081;28;20099;-59
2022/01/09 02:21:46;;;;;;;20.25;3.72;;;6.20;99.90;;;;;;5032702;28;20056;-60
2022/01/09 02:24:13;;;;;;;15.55;3.10;;;6.20;99.90;;;;;;5033190;28;20040;-60
2022/01/09 02:26:39;;;;;;;15.30;3.53;;;6.20;99.90;;;;;;5032252;28;20053;-60
2022/01/09 02:29:05;;;;;;;19.77;3.80;;;6.20;99.90;;;;;;5032460;28;20096;-60
2022/01/09 02:31:32;;;;;;;26.90;5.00;;;6.20;99.90;;;;;;5032154;28;20025;-60
2022/01/09 02:33:57;;;;;;;23.17;3.65;;;6.20;99.90;;;;;;5032662;28;20025;-60
2022/01/09 02:36:23;;;;;;;23.80;4.05;;;6.20;99.90;;;;;;5032429;28;20104;-60
2022/01/09 02:38:49;;;;;;;19.58;3.30;;;6.10;99.90;;;;;;5032184;28;20379;-60
2022/01/09 02:41:14;;;;;;;24.25;3.80;;;6.10;99.90;;;;;;5031938;28;20322;-60
2022/01/09 02:43:40;;;;;;;22.48;3.67;;;6.10;99.90;;;;;;5032692;28;20026;-60
2022/01/09 02:46:16;;;;;;;25.80;4.13;;;6.00;99.90;;;;;;5032337;28;20021;-60
2022/01/09 02:48:42;;;;;;;17.27;3.33;;;6.00;99.90;;;;;;5047513;28;20032;-60
2022/01/09 02:51:12;;;;;;;22.30;2.90;;;6.00;99.90;;;;;;5032085;28;20067;-61
2022/01/09 02:53:40;;;;;;;18.65;3.72;;;5.90;99.90;;;;;;5032509;28;20360;-60
2022/01/09 02:56:07;;;;;;;16.58;3.38;;;5.90;99.90;;;;;;5032209;28;20022;-60
2022/01/09 02:58:34;;;;;;;21.50;3.58;;;5.90;99.90;;;;;;5032144;28;20478;-60
2022/01/09 03:01:00;;;;;;;16.10;3.13;;;5.90;99.90;;;;;;5032693;28;20024;-61
2022/01/09 03:03:26;;;;;;;19.85;3.47;;;5.90;99.90;;;;;;5047129;28;20030;-61
2022/01/09 03:05:52;;;;;;;18.23;2.80;;;5.90;99.90;;;;;;5031604;28;20030;-60
2022/01/09 03:08:18;;;;;;;20.13;2.90;;;5.80;99.90;;;;;;5046210;28;20025;-60
2022/01/09 03:10:44;;;;;;;20.13;3.58;;;5.90;99.90;;;;;;5031698;28;20025;-60
2022/01/09 03:13:09;;;;;;;26.55;3.55;;;5.90;99.90;;;;;;5031787;28;20422;-60
2022/01/09 03:15:35;;;;;;;14.05;2.75;;;5.90;99.90;;;;;;5031316;28;20032;-60
2022/01/09 03:18:01;;;;;;;20.60;3.20;;;5.90;99.90;;;;;;5031818;28;20025;-60
2022/01/09 03:20:28;;;;;;;22.75;3.83;;;5.90;99.90;;;;;;5031434;28;20071;-60
2022/01/09 03:22:55;;;;;;;29.58;3.70;;;5.80;99.90;;;;;;5031519;28;20025;-60
2022/01/09 03:25:25;;;;;;;17.65;3.33;;;5.80;99.90;;;;;;5031790;28;20025;-60
2022/01/09 03:27:52;;;;;;;24.48;3.38;;;5.80;99.90;;;;;;5030270;28;20045;-61
2022/01/09 03:30:19;;;;;;;19.83;3.15;;;5.80;99.90;;;;;;5031294;28;20029;-61
2022/01/09 03:32:45;;;;;;;17.92;3.05;;;5.80;99.90;;;;;;5031046;28;20068;-60
2022/01/09 03:35:14;;;;;;;19.52;3.13;;;5.80;99.90;;;;;;5031239;28;20504;-60
2022/01/09 03:37:41;;;;;;;19.90;3.20;;;5.80;99.90;;;;;;5031427;28;20029;-60
2022/01/09 03:40:10;;;;;;;14.57;2.80;;;5.80;99.90;;;;;;5031283;28;20395;-60
2022/01/09 03:42:36;;;;;;;22.63;2.75;;;5.80;99.90;;;;;;5031164;28;20029;-60
2022/01/09 03:45:03;;;;;;;23.48;3.03;;;5.70;99.90;;;;;;5047010;28;20025;-60
2022/01/09 03:47:29;;;;;;;23.17;3.47;;;5.80;99.90;;;;;;5031045;28;20041;-60
2022/01/09 03:49:54;;;;;;;18.50;3.05;;;5.80;99.90;;;;;;5030818;28;20026;-60
2022/01/09 03:52:25;;;;;;;22.63;3.13;;;5.80;99.90;;;;;;5030309;28;20033;-60
2022/01/09 03:54:51;;;;;;;18.08;2.80;;;5.80;99.90;;;;;;5031185;28;20025;-60
2022/01/09 03:57:16;;;;;;;22.63;3.05;;;5.80;99.90;;;;;;5030728;28;20036;-60
2022/01/09 03:59:42;;;;;;;24.40;2.85;;;5.80;99.90;;;;;;5030633;28;20371;-60
2022/01/09 04:02:08;;;;;;;15.10;2.83;;;5.80;99.90;;;;;;5030366;28;20147;-60
2022/01/09 04:04:33;;;;;;;20.80;2.80;;;5.80;99.90;;;;;;5030859;28;20037;-59
2022/01/09 04:06:59;;;;;;;20.10;2.72;;;5.80;99.90;;;;;;5045742;28;20025;-59
2022/01/09 04:09:37;;;;;;;23.73;3.55;;;5.80;99.90;;;;;;5030892;28;20108;-60
2022/01/09 04:12:06;;;;;;;21.52;3.20;;;5.70;99.90;;;;;;5030816;28;20030;-59
2022/01/09 04:14:32;;;;;;;17.35;3.17;;;5.60;99.90;;;;;;5030682;28;20025;-59
2022/01/09 04:17:00;;;;;;;21.83;3.55;;;5.50;99.90;;;;;;5030772;28;20386;-59
2022/01/09 04:19:25;;;;;;;20.55;3.28;;;5.50;99.90;;;;;;5030649;28;20486;-60
2022/01/09 04:21:51;;;;;;;19.95;2.95;;;5.40;99.90;;;;;;5030561;28;20086;-60
2022/01/09 04:24:16;;;;;;;16.40;2.75;;;5.40;99.90;;;;;;5030906;28;20026;-60
2022/01/09 04:26:42;;;;;;;17.83;2.45;;;5.40;99.90;;;;;;5030440;28;20045;-59
2022/01/09 04:29:08;;;;;;;22.75;3.22;;;5.40;99.90;;;;;;5030709;28;20109;-59
2022/01/09 04:31:33;;;;;;;15.38;2.88;;;5.40;99.90;;;;;;5030103;28;20053;-59
2022/01/09 04:33:59;;;;;;;19.63;2.83;;;5.30;99.90;;;;;;5030331;28;20018;-59
2022/01/09 04:36:25;;;;;;;12.45;2.55;;;5.30;99.90;;;;;;5030911;28;20674;-59
2022/01/09 04:38:52;;;;;;;13.23;2.55;;;5.30;99.90;;;;;;5046218;28;20032;-60
2022/01/09 04:41:17;;;;;;;18.25;3.35;;;5.30;99.90;;;;;;5030451;28;20029;-60
2022/01/09 04:43:45;;;;;;;24.13;3.80;;;5.30;99.90;;;;;;5030398;28;20033;-59
2022/01/09 04:46:13;;;;;;;15.40;2.85;;;5.30;99.90;;;;;;5030094;28;20033;-59
2022/01/09 04:48:38;;;;;;;16.55;2.42;;;5.30;99.90;;;;;;5029736;28;20029;-57
2022/01/09 04:51:05;;;;;;;12.90;2.53;;;5.30;99.90;;;;;;5030142;28;20029;-59
2022/01/09 04:53:31;;;;;;;19.52;3.22;;;5.30;99.90;;;;;;5045251;28;20021;-58
2022/01/09 04:55:56;;;;;;;17.75;2.88;;;5.30;99.90;;;;;;5029719;28;20507;-58
2022/01/09 04:58:22;;;;;;;16.05;2.67;;;5.30;99.90;;;;;;5045311;28;20410;-58
2022/01/09 05:00:48;;;;;;;16.02;2.78;;;5.30;99.90;;;;;;5030201;28;20026;-57
2022/01/09 05:03:15;;;;;;;18.85;4.22;;;5.20;99.90;;;;;;5030553;28;20033;-57
2022/01/09 05:05:41;;;;;;;24.10;3.15;;;5.20;99.90;;;;;;5033265;28;20109;-58
2022/01/09 05:08:06;;;;;;;16.15;2.67;;;5.20;99.90;;;;;;5033518;28;20030;-58
2022/01/09 05:10:32;;;;;;;18.83;3.42;;;5.10;99.90;;;;;;5033999;28;20028;-58
2022/01/09 05:12:58;;;;;;;16.90;2.72;;;5.00;99.90;;;;;;5033902;28;20067;-57
2022/01/09 05:15:24;;;;;;;17.45;3.38;;;4.90;99.90;;;;;;5034005;28;20095;-57
2022/01/09 05:17:58;;;;;;;20.95;3.60;;;4.90;99.90;;;;;;5033934;28;20096;-58
2022/01/09 05:20:23;;;;;;;15.73;3.05;;;4.80;99.90;;;;;;5033682;28;20056;-58
2022/01/09 05:22:49;;;;;;;20.33;3.50;;;4.80;99.90;;;;;;5034125;28;20034;-58
2022/01/09 05:25:15;;;;;;;22.23;2.53;;;4.80;99.90;;;;;;5034492;28;20510;-58
2022/01/09 05:27:41;;;;;;;20.13;3.20;;;4.90;99.90;;;;;;5033570;28;20126;-58
2022/01/09 05:30:07;;;;;;;21.42;2.78;;;4.80;99.90;;;;;;5034142;28;20025;-57
2022/01/09 05:32:33;;;;;;;19.63;2.22;;;4.80;99.90;;;;;;5033424;28;20026;-57
2022/01/09 05:34:58;;;;;;;16.20;2.80;;;4.90;99.90;;;;;;5034682;28;20047;-57
2022/01/09 05:37:24;;;;;;;20.67;2.47;;;4.90;99.90;;;;;;5034356;28;20093;-58
2022/01/09 05:39:49;;;;;;;15.70;2.65;;;4.90;99.90;;;;;;5049840;28;20055;-59
2022/01/09 05:42:15;;;;;;;15.13;2.72;;;4.80;99.90;;;;;;5033346;28;20049;-58
2022/01/09 05:44:41;;;;;;;18.30;2.83;;;4.80;99.90;;;;;;5034303;28;20403;-58
2022/01/09 05:47:07;;;;;;;14.65;2.80;;;4.80;99.90;;;;;;5034152;28;20053;-58
2022/01/09 05:49:32;;;;;;;14.75;3.10;;;4.80;99.90;;;;;;5034256;28;20357;-58
2022/01/09 05:51:58;;;;;;;19.75;2.88;;;4.80;99.90;;;;;;5033692;28;20056;-57
2022/01/09 05:54:24;;;;;;;14.00;2.92;;;4.80;99.90;;;;;;5034186;28;20390;-59
2022/01/09 05:56:51;;;;;;;19.05;3.10;;;4.80;99.90;;;;;;5034482;28;20021;-58
2022/01/09 05:59:18;;;;;;;17.05;2.80;;;4.80;99.90;;;;;;5034148;28;20017;-58
2022/01/09 06:01:44;;;;;;;12.68;2.60;;;4.80;99.90;;;;;;5034294;28;20034;-58
2022/01/09 06:04:09;;;;;;;11.63;2.63;;;4.80;99.90;;;;;;5048045;28;20329;-58
2022/01/09 06:06:35;;;;;;;17.63;2.97;;;4.80;99.90;;;;;;5032151;28;20033;-58
2022/01/09 06:09:01;;;;;;;18.88;2.95;;;4.80;99.90;;;;;;5032395;28;20037;-58
2022/01/09 06:11:26;;;;;;;18.85;3.00;;;4.80;99.90;;;;;;5032311;28;20104;-58
2022/01/09 06:13:52;;;;;;;18.25;3.15;;;4.80;99.90;;;;;;5047680;28;20024;-58
2022/01/09 06:16:18;;;;;;;14.23;2.63;;;4.80;99.90;;;;;;5032060;28;20568;-58
2022/01/09 06:18:43;;;;;;;15.00;3.17;;;4.80;99.90;;;;;;5032382;28;20025;-59
2022/01/09 06:21:09;;;;;;;12.20;2.63;;;4.80;99.90;;;;;;5032479;28;20109;-57
2022/01/09 06:23:35;;;;;;;15.13;2.17;;;4.80;99.90;;;;;;5032680;28;20026;-58
2022/01/09 06:26:00;;;;;;;13.43;2.67;;;4.80;99.90;;;;;;5032484;28;20585;-57
2022/01/09 06:28:26;;;;;;;17.17;2.78;;;4.80;99.90;;;;;;5030644;28;20044;-58
2022/01/09 06:30:52;;;;;;;19.40;2.85;;;4.70;99.90;;;;;;5032690;28;20057;-58
2022/01/09 06:33:19;;;;;;;18.67;3.30;;;4.70;99.90;;;;;;5032755;28;20029;-57
2022/01/09 06:35:44;;;;;;;14.50;2.83;;;4.70;99.90;;;;;;5032648;28;20025;-57
2022/01/09 06:38:10;;;;;;;12.98;2.67;;;4.70;99.90;;;;;;5032278;28;20109;-58
2022/01/09 06:40:36;;;;;;;13.38;3.17;;;4.70;99.90;;;;;;5032028;28;20017;-58
2022/01/09 06:43:03;;;;;;;15.52;3.08;;;4.70;99.90;;;;;;5031805;28;20049;-58
2022/01/09 06:45:29;;;;;;;17.77;2.90;;;4.60;99.90;;;;;;5031795;28;20397;-58
2022/01/09 06:47:57;;;;;;;16.88;3.28;;;4.60;99.90;;;;;;5047052;28;20025;-58
2022/01/09 06:50:23;;;;;;;16.25;2.33;;;4.60;99.90;;;;;;5031526;28;20052;-58
2022/01/09 06:52:49;;;;;;;14.38;2.53;;;4.60;99.90;;;;;;5031904;28;20036;-58
2022/01/09 06:55:15;;;;;;;16.42;3.33;;;4.60;99.90;;;;;;5031919;28;20409;-57
2022/01/09 06:57:41;;;;;;;16.45;2.92;;;4.50;99.90;;;;;;5031821;28;20105;-58
2022/01/09 07:00:09;;;;;;;23.25;3.28;;;4.60;99.90;;;;;;5031493;28;20143;-58
2022/01/09 07:02:35;;;;;;;12.43;2.47;;;4.60;99.90;;;;;;5031770;28;20402;-58
2022/01/09 07:05:00;;;;;;;15.98;2.80;;;4.50;99.90;;;;;;5032154;28;20028;-58
2022/01/09 07:07:26;;;;;;;15.75;2.60;;;4.60;99.90;;;;;;5031726;28;20021;-58
2022/01/09 07:09:52;;;;;;;15.93;2.70;;;4.60;99.90;;;;;;5031468;28;20030;-58
2022/01/09 07:12:19;;;;;;;18.60;3.22;;;4.60;99.90;;;;;;5031208;28;20037;-58
2022/01/09 07:14:45;;;;;;;16.15;2.55;;;4.60;99.90;;;;;;5031910;28;20071;-59
2022/01/09 07:17:11;;;;;;;20.45;2.75;;;4.60;99.90;;;;;;5031157;28;20398;-58
2022/01/09 07:19:37;;;;;;;15.27;3.13;;;4.60;99.90;;;;;;5031743;28;20129;-58
2022/01/09 07:22:04;;;;;;;19.35;3.40;;;4.60;99.90;;;;;;5031426;28;20107;-59
2022/01/09 07:24:30;;;;;;;14.15;2.42;;;4.60;99.90;;;;;;5032022;28;20052;-59
2022/01/09 07:26:55;;;;;;;23.17;3.80;;;4.50;99.90;;;;;;5031241;28;20057;-59
2022/01/09 07:29:21;;;;;;;19.60;3.72;;;4.60;99.90;;;;;;5029710;28;20091;-58
2022/01/09 07:31:47;;;;;;;19.77;3.00;;;4.60;99.90;;;;;;5031663;28;20029;-58
2022/01/09 07:34:12;;;;;;;16.90;3.05;;;4.50;99.90;;;;;;5031395;28;20029;-58
2022/01/09 07:36:38;;;;;;;15.73;2.55;;;4.60;99.90;;;;;;5031732;28;20021;-58
2022/01/09 07:39:04;;;;;;;20.92;3.40;;;4.60;99.90;;;;;;5031700;28;20025;-59
2022/01/09 07:41:29;;;;;;;20.67;3.15;;;4.60;99.90;;;;;;5031849;28;20034;-59
2022/01/09 07:43:55;;;;;;;21.00;3.25;;;4.50;99.90;;;;;;5031523;28;20030;-59
2022/01/09 07:46:20;;;;;;;17.75;2.60;;;4.50;99.90;;;;;;5031191;28;20029;-59
2022/01/09 07:48:46;;;;;;;18.10;3.30;;;4.60;99.90;;;;;;5031435;28;20037;-58
2022/01/09 07:51:12;;;;;;;14.40;2.50;;;4.60;99.90;;;;;;5031270;28;20065;-59
2022/01/09 07:53:38;;;;;;;23.52;2.75;;;4.60;99.90;;;;;;5031536;28;20033;-59
2022/01/09 07:56:05;;;;;;;22.98;2.90;;;4.50;99.90;;;;;;5031316;28;20021;-58
2022/01/09 07:58:31;;;;;;;15.73;2.85;;;4.50;99.90;;;;;;5045826;28;20036;-58
2022/01/09 08:00:57;;;;;;;18.58;2.90;;;4.40;99.90;;;;;;5030835;28;20029;-59
2022/01/09 08:03:22;;;;;;;15.88;2.75;;;4.40;99.90;;;;;;5030369;28;20029;-60
2022/01/09 08:05:48;;;;;;;20.85;3.50;;;4.40;99.90;;;;;;5030303;28;20065;-59
2022/01/09 08:08:14;;;;;;;13.73;2.47;;;4.40;99.90;;;;;;5029330;28;20052;-59
2022/01/09 08:10:39;;;;;;;21.92;4.28;;;4.40;99.90;;;;;;5030371;28;20030;-60
2022/01/09 08:13:05;;;;;;;17.20;2.55;;;4.30;99.90;;;;;;5030505;28;20026;-60
2022/01/09 08:15:30;;;;;;;17.75;3.28;;;4.30;99.90;;;;;;5030264;28;20088;-60
2022/01/09 08:17:56;;;;;;;15.13;2.83;;;4.30;99.90;;;;;;5031359;28;20109;-59
2022/01/09 08:20:22;;;;;;;19.70;2.97;;;4.50;99.90;;;;;;5030978;28;20474;-59
2022/01/09 08:22:48;;;;;;;18.45;2.53;;;4.50;99.90;;;;;;5045984;28;20049;-59
2022/01/09 08:25:16;;;;;;;13.40;3.53;;;4.60;99.90;;;;;;5031014;28;20604;-59
2022/01/09 08:27:43;;;;;;;18.35;3.78;;;4.70;99.90;;;;;;5030384;28;20053;-60
2022/01/09 08:30:10;;;;;;;22.88;3.90;;;4.70;99.90;;;;;;5029072;28;20036;-60
2022/01/09 08:32:36;;;;;;;18.95;3.45;;;4.70;99.90;;;;;;5031157;28;20578;-60
2022/01/09 08:35:03;;;;;;;19.42;3.85;;;4.80;99.90;;;;;;5030634;28;20627;-60
2022/01/09 08:37:29;;;;;;;15.05;3.50;;;4.80;99.90;;;;;;5030753;28;20037;-61
2022/01/09 08:39:55;;;;;;;14.50;2.75;;;4.90;99.90;;;;;;5034218;28;20044;-60
2022/01/09 08:42:20;;;;;;;17.20;3.35;;;4.90;99.90;;;;;;5035176;28;20026;-60
2022/01/09 08:44:46;;;;;;;15.30;2.88;;;5.00;99.90;;;;;;5034598;28;20057;-61
2022/01/09 08:47:12;;;;;;;23.10;3.65;;;5.00;99.90;;;;;;5034300;28;20053;-60
2022/01/09 08:49:37;;;;;;;17.83;3.20;;;5.00;99.90;;;;;;5034429;28;20075;-60
2022/01/09 08:52:03;;;;;;;23.83;4.03;;;5.00;99.90;;;;;;5034113;28;20107;-60
2022/01/09 08:54:30;;;;;;;17.20;3.17;;;5.00;99.90;;;;;;5034516;28;20029;-60
2022/01/09 08:56:55;;;;;;;18.60;3.55;;;5.00;99.90;;;;;;5034575;28;20022;-60
2022/01/09 08:59:21;;;;;;;19.85;3.92;;;5.10;99.90;;;;;;5034790;28;20029;-60
2022/01/09 09:01:47;;;;;;;16.63;3.50;;;5.10;99.90;;;;;;5034471;28;20029;-60
2022/01/09 09:04:14;;;;;;;12.27;2.88;;;5.20;99.90;;;;;;5034210;28;20026;-60
2022/01/09 09:06:40;;;;;;;17.25;3.10;;;5.20;99.90;;;;;;5033585;28;20037;-60
2022/01/09 09:09:07;;;;;;;17.65;3.75;;;5.20;99.90;;;;;;5033526;28;20033;-60
2022/01/09 09:11:32;;;;;;;15.88;3.30;;;5.20;99.90;;;;;;5033637;28;20151;-60
2022/01/09 09:13:58;;;;;;;11.15;2.50;;;5.30;99.90;;;;;;5034365;28;20336;-60
2022/01/09 09:16:24;;;;;;;21.83;3.40;;;5.40;99.90;;;;;;5033734;28;20433;-61
2022/01/09 09:18:50;;;;;;;12.43;2.83;;;5.50;99.90;;;;;;5033378;28;20620;-60
2022/01/09 09:21:16;;;;;;;17.92;3.30;;;5.50;99.90;;;;;;5048691;28;20122;-60
2022/01/09 09:23:42;;;;;;;13.27;3.03;;;5.70;99.90;;;;;;5033389;28;20068;-60
2022/01/09 09:26:09;;;;;;;13.48;2.67;;;5.90;99.90;;;;;;5032727;28;20046;-60
2022/01/09 09:28:36;;;;;;;16.92;2.95;;;6.00;99.90;;;;;;5032840;28;20123;-59
2022/01/09 09:31:01;;;;;;;19.40;2.45;;;5.90;99.90;;;;;;5033190;28;20075;-60
2022/01/09 09:33:27;;;;;;;18.48;3.05;;;5.90;99.90;;;;;;5033050;28;20418;-60
2022/01/09 09:35:52;;;;;;;14.95;3.22;;;6.10;99.90;;;;;;5033385;28;20032;-61
2022/01/09 09:38:18;;;;;;;15.90;2.78;;;6.30;99.90;;;;;;5032925;28;20101;-61
2022/01/09 09:40:44;;;;;;;13.65;3.10;;;6.50;99.90;;;;;;5033451;28;20072;-61
2022/01/09 09:43:09;;;;;;;17.30;3.60;;;6.90;99.90;;;;;;5033064;28;20041;-61
2022/01/09 09:45:35;;;;;;;18.35;3.53;;;7.40;99.90;;;;;;5033758;28;20025;-61
2022/01/09 09:48:01;;;;;;;17.30;3.28;;;7.80;99.90;;;;;;5033376;28;20018;-61
2022/01/09 09:50:26;;;;;;;13.70;3.30;;;8.00;99.90;;;;;;5032013;28;20030;-61
2022/01/09 09:52:52;;;;;;;15.10;2.97;;;8.00;99.90;;;;;;5032972;28;20101;-61
2022/01/09 09:55:18;;;;;;;12.43;2.63;;;7.70;99.90;;;;;;5033700;28;20444;-61
2022/01/09 09:57:45;;;;;;;12.50;3.05;;;8.00;99.90;;;;;;5033008;28;20022;-61
2022/01/09 10:00:18;;;;;;;12.50;3.03;;;8.40;99.90;;;;;;5048053;28;20025;-61
2022/01/09 10:02:55;;;;;;;13.77;2.72;;;8.60;99.90;;;;;;5048140;28;20116;-61
2022/01/09 10:05:24;;;;;;;13.20;3.33;;;8.90;99.90;;;;;;5032885;28;20049;-61
2022/01/09 10:07:52;;;;;;;15.88;2.70;;;9.30;99.90;;;;;;5032417;28;20037;-61
2022/01/09 10:10:21;;;;;;;14.38;2.83;;;9.00;99.90;;;;;;5047404;28;20025;-61
2022/01/09 10:12:48;;;;;;;20.38;3.35;;;9.00;99.90;;;;;;5047985;28;20113;-61
2022/01/09 10:15:19;;;;;;;13.45;2.90;;;9.00;99.90;;;;;;5032531;28;20021;-62
2022/01/09 10:17:47;;;;;;;13.43;2.90;;;9.20;99.90;;;;;;5032749;28;20390;-62
2022/01/09 10:20:22;;;;;;;12.25;4.05;;;9.10;99.90;;;;;;5032403;28;20040;-62
2022/01/09 10:22:51;;;;;;;13.88;4.35;;;8.90;99.90;;;;;;5032098;28;20517;-62
2022/01/09 10:25:30;;;;;;;15.68;3.28;;;9.20;99.90;;;;;;5047927;28;20021;-62
2022/01/09 10:28:10;;;;;;;13.43;2.85;;;9.00;99.90;;;;;;5032647;28;20534;-60
2022/01/09 10:30:41;;;;;;;13.13;3.53;;;8.70;99.90;;;;;;5032530;28;20030;-60
2022/01/09 10:33:10;;;;;;;10.85;2.75;;;8.60;99.90;;;;;;5047777;28;20030;-60
2022/01/09 10:35:37;;;;;;;14.77;3.10;;;8.60;99.90;;;;;;5032593;28;20486;-60
2022/01/09 10:38:16;;;;;;;15.85;3.53;;;8.70;99.90;;;;;;5031800;28;20211;-60
2022/01/09 10:40:45;;;;;;;12.40;3.05;;;9.30;99.90;;;;;;5032241;28;20028;-61
2022/01/09 10:43:13;;;;;;;10.38;2.92;;;9.20;99.90;;;;;;5032176;28;20021;-60
2022/01/09 10:45:41;;;;;;;20.23;4.88;;;9.30;99.90;;;;;;5032246;28;20025;-61
2022/01/09 10:48:33;;;;;;;12.48;3.97;;;9.30;99.90;;;;;;5032192;28;20028;-61
2022/01/09 10:51:00;;;;;;;16.42;3.80;;;9.50;99.90;;;;;;5031387;28;20128;-61
2022/01/09 10:53:31;;;;;;;12.85;3.00;;;9.90;99.90;;;;;;5032114;28;20041;-61
2022/01/09 10:56:12;;;;;;;13.13;3.53;;;9.90;99.90;;;;;;5032030;28;20006;-61
2022/01/09 10:58:44;;;;;;;17.63;3.08;;;9.50;99.90;;;;;;5031823;28;20021;-61
2022/01/09 11:01:23;;;;;;;17.30;3.50;;;9.90;99.90;;;;;;5031519;28;20025;-61
2022/01/09 11:03:50;;;;;;;13.13;3.10;;;9.90;99.90;;;;;;5031891;28;20032;-61
2022/01/09 11:06:16;;;;;;;14.10;3.47;;;10.20;99.90;;;;;;5046878;28;20473;-61
2022/01/09 11:08:43;;;;;;;12.82;3.17;;;10.30;99.90;;;;;;5031320;28;20026;-61
2022/01/09 11:11:20;;;;;;;14.27;3.15;;;10.40;99.90;;;;;;5031270;28;20056;-61
2022/01/09 11:13:47;;;;;;;14.75;3.63;;;10.90;99.90;;;;;;5031914;28;20033;-61
2022/01/09 11:16:32;;;;;;;14.45;3.15;;;11.60;99.90;;;;;;5031882;28;20111;-61
2022/01/09 11:19:07;;;;;;;12.60;3.03;;;11.80;99.90;;;;;;5030185;28;20108;-61
2022/01/09 11:21:34;;;;;;;14.13;3.20;;;11.70;99.90;;;;;;5031074;28;20028;-61
2022/01/09 11:24:33;;;;;;;14.48;2.90;;;11.20;99.90;;;;;;5031200;28;20061;-61
2022/01/09 11:27:18;;;;;;;14.82;3.63;;;11.30;99.90;;;;;;5030948;28;20558;-62
2022/01/09 11:30:07;;;;;;;14.70;3.38;;;11.60;99.90;;;;;;5030760;28;20100;-62
2022/01/09 11:33:06;;;;;;;15.73;4.63;;;11.40;99.90;;;;;;5030821;28;20101;-61
2022/01/09 11:35:38;;;;;;;15.60;4.30;;;11.20;99.90;;;;;;5031270;28;20552;-61
2022/01/09 11:38:12;;;;;;;12.52;3.08;;;11.60;99.90;;;;;;5045978;28;20143;-61
2022/01/09 11:40:39;;;;;;;11.20;3.22;;;12.00;99.90;;;;;;5030707;28;20032;-61
2022/01/09 11:43:14;;;;;;;13.35;3.25;;;11.90;99.90;;;;;;5030695;28;20394;-61
2022/01/09 11:45:39;;;;;;;9.95;3.28;;;11.30;99.90;;;;;;5045942;28;20395;-61
2022/01/09 11:48:06;;;;;;;19.27;3.97;;;11.20;99.90;;;;;;5030626;28;20029;-61
2022/01/09 11:50:33;;;;;;;9.20;3.33;;;11.50;99.90;;;;;;5046076;28;20025;-61
2022/01/09 11:53:00;;;;;;;16.63;3.53;;;12.00;99.90;;;;;;5030918;28;20099;-61
2022/01/09 11:55:41;;;;;;;17.92;3.67;;;12.50;99.90;;;;;;5030877;28;20517;-61
2022/01/09 11:58:10;;;;;;;14.38;3.85;;;12.70;99.90;;;;;;5046543;28;20030;-61
2022/01/09 12:00:42;;;;;;;13.43;4.25;;;12.60;99.90;;;;;;5031030;28;20045;-62
2022/01/09 12:03:26;;;;;;;13.20;4.53;;;12.50;99.90;;;;;;5031008;28;20682;-62
2022/01/09 12:06:14;;;;;;;11.93;2.83;;;13.00;99.90;;;;;;5045869;28;20025;-62
2022/01/09 12:09:00;;;;;;;11.75;2.88;;;13.00;99.90;;;;;;5045935;28;20029;-62
2022/01/09 12:12:03;;;;;;;11.93;2.95;;;13.20;99.90;;;;;;5045543;28;20056;-61
2022/01/09 12:14:58;;;;;;;16.08;3.05;;;12.60;99.90;;;;;;5048326;28;20028;-61
2022/01/09 12:20:04;;;;;;;13.23;3.25;;;12.40;99.90;;;;;;5034167;28;20030;-61
2022/01/09 12:22:39;;;;;;;11.88;2.65;;;12.70;99.90;;;;;;5034314;28;20085;-62
2022/01/09 12:25:30;;;;;;;12.02;3.35;;;13.20;99.90;;;;;;5034791;28;20564;-62
2022/01/09 12:28:34;;;;;;;17.02;5.05;;;13.40;99.90;;;;;;5048556;28;20072;-62
2022/01/09 12:31:01;;;;;;;9.60;3.03;;;13.90;99.90;;;;;;5033474;28;20468;-62
2022/01/09 12:33:31;;;;;;;12.27;3.75;;;13.40;99.90;;;;;;5034692;28;20025;-62
2022/01/09 12:36:08;;;;;;;22.60;6.22;;;12.30;99.90;;;;;;5049806;28;20318;-62
2022/01/09 12:38:36;;;;;;;16.73;3.20;;;10.80;99.90;;;;;;5034206;28;20021;-62
2022/01/09 12:41:08;;;;;;;19.10;3.88;;;9.90;99.90;;;;;;5034339;28;20033;-62
2022/01/09 12:43:35;;;;;;;15.73;3.42;;;9.60;99.90;;;;;;5034709;28;20100;-62
2022/01/09 12:46:13;;;;;;;16.50;3.65;;;9.70;99.90;;;;;;5050348;28;20150;-61
2022/01/09 12:48:40;;;;;;;12.43;3.15;;;9.80;99.90;;;;;;5049683;28;20159;-61
2022/01/09 12:51:17;;;;;;;17.55;3.90;;;10.30;99.90;;;;;;5034232;28;20021;-61